sensor_id;sensor_type;location;lat;lon;timestamp;temperature;humidity
59771;DHT22;45649;53.014;6.600;2023-07-13T00:00:27;18.50;72.80
59771;DHT22;45649;53.014;6.600;2023-07-13T00:02:53;18.40;72.80
59771;DHT22;45649;53.014;6.600;2023-07-13T00:05:20;18.40;72.80
59771;DHT22;45649;53.014;6.600;2023-07-13T00:07:47;18.40;73.00
59771;DHT22;45649;53.014;6.600;2023-07-13T00:10:13;18.40;72.90
59771;DHT22;45649;53.014;6.600;2023-07-13T00:12:39;18.40;73.30
59771;DHT22;45649;53.014;6.600;2023-07-13T00:15:17;18.50;73.70
59771;DHT22;45649;53.014;6.600;2023-07-13T00:17:46;18.40;73.90
59771;DHT22;45649;53.014;6.600;2023-07-13T00:20:12;18.30;73.90
59771;DHT22;45649;53.014;6.600;2023-07-13T00:22:38;18.30;74.30
59771;DHT22;45649;53.014;6.600;2023-07-13T00:25:04;18.30;74.10
59771;DHT22;45649;53.014;6.600;2023-07-13T00:27:31;18.30;74.50
59771;DHT22;45649;53.014;6.600;2023-07-13T00:29:59;18.30;75.00
59771;DHT22;45649;53.014;6.600;2023-07-13T00:32:24;18.40;74.90
59771;DHT22;45649;53.014;6.600;2023-07-13T00:34:54;18.30;75.10
59771;DHT22;45649;53.014;6.600;2023-07-13T00:37:20;18.30;75.00
59771;DHT22;45649;53.014;6.600;2023-07-13T00:39:46;18.30;75.30
59771;DHT22;45649;53.014;6.600;2023-07-13T00:42:12;18.40;75.70
59771;DHT22;45649;53.014;6.600;2023-07-13T00:44:37;18.40;75.50
59771;DHT22;45649;53.014;6.600;2023-07-13T00:47:05;18.40;76.70
59771;DHT22;45649;53.014;6.600;2023-07-13T00:49:33;18.40;77.30
59771;DHT22;45649;53.014;6.600;2023-07-13T00:52:08;18.40;77.30
59771;DHT22;45649;53.014;6.600;2023-07-13T00:54:39;18.40;77.60
59771;DHT22;45649;53.014;6.600;2023-07-13T00:57:09;18.40;77.80
59771;DHT22;45649;53.014;6.600;2023-07-13T00:59:36;18.40;78.40
59771;DHT22;45649;53.014;6.600;2023-07-13T01:02:05;18.40;78.30
59771;DHT22;45649;53.014;6.600;2023-07-13T01:04:31;18.40;78.40
59771;DHT22;45649;53.014;6.600;2023-07-13T01:06:57;18.40;78.30
59771;DHT22;45649;53.014;6.600;2023-07-13T01:09:25;18.40;78.70
59771;DHT22;45649;53.014;6.600;2023-07-13T01:11:51;18.40;79.10
59771;DHT22;45649;53.014;6.600;2023-07-13T01:14:17;18.40;78.70
59771;DHT22;45649;53.014;6.600;2023-07-13T01:16:45;18.40;79.40
59771;DHT22;45649;53.014;6.600;2023-07-13T01:19:42;18.40;79.10
59771;DHT22;45649;53.014;6.600;2023-07-13T01:22:16;18.30;81.00
59771;DHT22;45649;53.014;6.600;2023-07-13T01:24:45;18.30;79.90
59771;DHT22;45649;53.014;6.600;2023-07-13T01:27:14;18.30;80.00
59771;DHT22;45649;53.014;6.600;2023-07-13T01:29:41;18.30;80.70
59771;DHT22;45649;53.014;6.600;2023-07-13T01:32:21;18.30;81.20
59771;DHT22;45649;53.014;6.600;2023-07-13T01:34:49;18.30;80.80
59771;DHT22;45649;53.014;6.600;2023-07-13T01:37:15;18.20;79.90
59771;DHT22;45649;53.014;6.600;2023-07-13T01:39:40;18.30;79.50
59771;DHT22;45649;53.014;6.600;2023-07-13T01:42:06;18.20;80.60
59771;DHT22;45649;53.014;6.600;2023-07-13T01:44:32;18.20;80.50
59771;DHT22;45649;53.014;6.600;2023-07-13T01:46:58;18.20;81.00
59771;DHT22;45649;53.014;6.600;2023-07-13T01:49:24;18.10;82.00
59771;DHT22;45649;53.014;6.600;2023-07-13T01:51:49;18.10;82.40
59771;DHT22;45649;53.014;6.600;2023-07-13T01:54:15;18.10;81.50
59771;DHT22;45649;53.014;6.600;2023-07-13T01:56:41;18.10;82.50
59771;DHT22;45649;53.014;6.600;2023-07-13T01:59:08;18.10;83.30
59771;DHT22;45649;53.014;6.600;2023-07-13T02:04:09;18.10;82.80
59771;DHT22;45649;53.014;6.600;2023-07-13T02:06:34;18.10;81.00
59771;DHT22;45649;53.014;6.600;2023-07-13T02:09:00;18.00;82.00
59771;DHT22;45649;53.014;6.600;2023-07-13T02:11:26;18.00;82.50
59771;DHT22;45649;53.014;6.600;2023-07-13T02:14:01;18.00;82.80
59771;DHT22;45649;53.014;6.600;2023-07-13T02:16:27;18.00;83.20
59771;DHT22;45649;53.014;6.600;2023-07-13T02:18:53;18.00;83.40
59771;DHT22;45649;53.014;6.600;2023-07-13T02:21:22;18.00;82.50
59771;DHT22;45649;53.014;6.600;2023-07-13T02:23:49;18.00;83.30
59771;DHT22;45649;53.014;6.600;2023-07-13T02:26:14;18.00;84.00
59771;DHT22;45649;53.014;6.600;2023-07-13T02:28:40;17.90;84.10
59771;DHT22;45649;53.014;6.600;2023-07-13T02:31:11;17.90;84.10
59771;DHT22;45649;53.014;6.600;2023-07-13T02:33:37;17.90;85.00
59771;DHT22;45649;53.014;6.600;2023-07-13T02:36:03;17.90;85.20
59771;DHT22;45649;53.014;6.600;2023-07-13T02:38:34;17.80;85.10
59771;DHT22;45649;53.014;6.600;2023-07-13T02:41:04;17.80;85.30
59771;DHT22;45649;53.014;6.600;2023-07-13T02:43:30;17.80;85.60
59771;DHT22;45649;53.014;6.600;2023-07-13T02:45:56;17.80;85.30
59771;DHT22;45649;53.014;6.600;2023-07-13T02:48:22;17.70;86.10
59771;DHT22;45649;53.014;6.600;2023-07-13T02:50:47;17.70;85.00
59771;DHT22;45649;53.014;6.600;2023-07-13T02:53:13;17.80;84.10
59771;DHT22;45649;53.014;6.600;2023-07-13T02:55:39;17.70;84.80
59771;DHT22;45649;53.014;6.600;2023-07-13T02:58:06;17.70;85.10
59771;DHT22;45649;53.014;6.600;2023-07-13T03:00:32;17.70;86.00
59771;DHT22;45649;53.014;6.600;2023-07-13T03:02:58;17.70;86.00
59771;DHT22;45649;53.014;6.600;2023-07-13T03:05:24;17.70;86.10
59771;DHT22;45649;53.014;6.600;2023-07-13T03:07:49;17.50;87.60
59771;DHT22;45649;53.014;6.600;2023-07-13T03:10:15;17.60;86.00
59771;DHT22;45649;53.014;6.600;2023-07-13T03:12:42;17.60;87.40
59771;DHT22;45649;53.014;6.600;2023-07-13T03:15:08;17.60;86.20
59771;DHT22;45649;53.014;6.600;2023-07-13T03:17:34;17.60;87.60
59771;DHT22;45649;53.014;6.600;2023-07-13T03:19:59;17.60;86.70
59771;DHT22;45649;53.014;6.600;2023-07-13T03:22:25;17.60;87.50
59771;DHT22;45649;53.014;6.600;2023-07-13T03:24:51;17.50;87.40
59771;DHT22;45649;53.014;6.600;2023-07-13T03:27:17;17.50;88.40
59771;DHT22;45649;53.014;6.600;2023-07-13T03:29:43;17.50;88.00
59771;DHT22;45649;53.014;6.600;2023-07-13T03:32:09;17.50;88.10
59771;DHT22;45649;53.014;6.600;2023-07-13T03:34:35;17.50;87.10
59771;DHT22;45649;53.014;6.600;2023-07-13T03:37:01;17.50;87.30
59771;DHT22;45649;53.014;6.600;2023-07-13T03:39:27;17.40;88.10
59771;DHT22;45649;53.014;6.600;2023-07-13T03:41:52;17.40;86.90
59771;DHT22;45649;53.014;6.600;2023-07-13T03:44:18;17.50;86.70
59771;DHT22;45649;53.014;6.600;2023-07-13T03:46:44;17.50;86.60
59771;DHT22;45649;53.014;6.600;2023-07-13T03:49:11;17.50;88.30
59771;DHT22;45649;53.014;6.600;2023-07-13T03:51:37;17.50;87.10
59771;DHT22;45649;53.014;6.600;2023-07-13T03:54:03;17.50;86.80
59771;DHT22;45649;53.014;6.600;2023-07-13T03:56:30;17.40;86.60
59771;DHT22;45649;53.014;6.600;2023-07-13T03:58:59;17.40;88.20
59771;DHT22;45649;53.014;6.600;2023-07-13T04:01:25;17.40;87.40
59771;DHT22;45649;53.014;6.600;2023-07-13T04:03:52;17.50;86.50
59771;DHT22;45649;53.014;6.600;2023-07-13T04:06:21;17.40;87.90
59771;DHT22;45649;53.014;6.600;2023-07-13T04:08:56;17.50;87.20
59771;DHT22;45649;53.014;6.600;2023-07-13T04:11:25;17.50;88.10
59771;DHT22;45649;53.014;6.600;2023-07-13T04:13:51;17.50;86.90
59771;DHT22;45649;53.014;6.600;2023-07-13T04:16:18;17.50;87.70
59771;DHT22;45649;53.014;6.600;2023-07-13T04:18:44;17.40;88.70
59771;DHT22;45649;53.014;6.600;2023-07-13T04:21:11;17.40;87.30
59771;DHT22;45649;53.014;6.600;2023-07-13T04:23:37;17.40;86.20
59771;DHT22;45649;53.014;6.600;2023-07-13T04:26:04;17.40;86.60
59771;DHT22;45649;53.014;6.600;2023-07-13T04:28:30;17.40;87.10
59771;DHT22;45649;53.014;6.600;2023-07-13T04:30:56;17.40;87.70
59771;DHT22;45649;53.014;6.600;2023-07-13T04:33:22;17.40;88.80
59771;DHT22;45649;53.014;6.600;2023-07-13T04:35:53;17.40;87.70
59771;DHT22;45649;53.014;6.600;2023-07-13T04:38:27;17.50;89.00
59771;DHT22;45649;53.014;6.600;2023-07-13T04:40:59;17.50;88.40
59771;DHT22;45649;53.014;6.600;2023-07-13T04:43:25;17.50;90.00
59771;DHT22;45649;53.014;6.600;2023-07-13T04:45:52;17.60;88.70
59771;DHT22;45649;53.014;6.600;2023-07-13T04:48:18;17.60;88.60
59771;DHT22;45649;53.014;6.600;2023-07-13T04:50:44;17.60;88.50
59771;DHT22;45649;53.014;6.600;2023-07-13T04:53:10;17.60;88.20
59771;DHT22;45649;53.014;6.600;2023-07-13T04:55:37;17.60;88.30
59771;DHT22;45649;53.014;6.600;2023-07-13T04:58:03;17.70;88.90
59771;DHT22;45649;53.014;6.600;2023-07-13T05:00:30;17.80;90.00
59771;DHT22;45649;53.014;6.600;2023-07-13T05:02:56;17.80;87.20
59771;DHT22;45649;53.014;6.600;2023-07-13T05:05:23;17.70;88.60
59771;DHT22;45649;53.014;6.600;2023-07-13T05:07:49;17.70;87.80
59771;DHT22;45649;53.014;6.600;2023-07-13T05:10:15;17.70;88.00
59771;DHT22;45649;53.014;6.600;2023-07-13T05:12:41;17.70;88.80
59771;DHT22;45649;53.014;6.600;2023-07-13T05:15:07;17.80;89.20
59771;DHT22;45649;53.014;6.600;2023-07-13T05:17:35;17.80;87.30
59771;DHT22;45649;53.014;6.600;2023-07-13T05:20:01;17.80;89.90
59771;DHT22;45649;53.014;6.600;2023-07-13T05:22:27;17.90;87.10
59771;DHT22;45649;53.014;6.600;2023-07-13T05:24:53;18.00;87.20
59771;DHT22;45649;53.014;6.600;2023-07-13T05:27:19;18.00;87.70
59771;DHT22;45649;53.014;6.600;2023-07-13T05:29:44;18.00;88.40
59771;DHT22;45649;53.014;6.600;2023-07-13T05:32:10;18.10;87.00
59771;DHT22;45649;53.014;6.600;2023-07-13T05:34:36;18.20;88.90
59771;DHT22;45649;53.014;6.600;2023-07-13T05:37:01;18.20;88.90
59771;DHT22;45649;53.014;6.600;2023-07-13T05:39:27;18.20;88.10
59771;DHT22;45649;53.014;6.600;2023-07-13T05:41:53;18.20;87.90
59771;DHT22;45649;53.014;6.600;2023-07-13T05:44:19;18.20;87.00
59771;DHT22;45649;53.014;6.600;2023-07-13T05:46:45;18.20;85.50
59771;DHT22;45649;53.014;6.600;2023-07-13T05:49:10;18.30;87.20
59771;DHT22;45649;53.014;6.600;2023-07-13T05:51:37;18.30;86.30
59771;DHT22;45649;53.014;6.600;2023-07-13T05:54:03;18.30;86.00
59771;DHT22;45649;53.014;6.600;2023-07-13T05:56:28;18.40;87.90
59771;DHT22;45649;53.014;6.600;2023-07-13T05:58:54;18.50;86.00
59771;DHT22;45649;53.014;6.600;2023-07-13T06:01:20;18.50;86.30
59771;DHT22;45649;53.014;6.600;2023-07-13T06:03:47;18.50;87.90
59771;DHT22;45649;53.014;6.600;2023-07-13T06:06:14;18.50;85.80
59771;DHT22;45649;53.014;6.600;2023-07-13T06:08:40;18.60;87.60
59771;DHT22;45649;53.014;6.600;2023-07-13T06:11:17;18.60;87.40
59771;DHT22;45649;53.014;6.600;2023-07-13T06:13:43;18.70;87.40
59771;DHT22;45649;53.014;6.600;2023-07-13T06:16:10;18.70;84.30
59771;DHT22;45649;53.014;6.600;2023-07-13T06:18:36;18.80;83.50
59771;DHT22;45649;53.014;6.600;2023-07-13T06:21:07;18.80;85.30
59771;DHT22;45649;53.014;6.600;2023-07-13T06:23:33;18.80;86.90
59771;DHT22;45649;53.014;6.600;2023-07-13T06:25:59;18.80;86.60
59771;DHT22;45649;53.014;6.600;2023-07-13T06:28:25;18.90;85.90
59771;DHT22;45649;53.014;6.600;2023-07-13T06:30:50;19.00;83.90
59771;DHT22;45649;53.014;6.600;2023-07-13T06:33:16;19.00;83.70
59771;DHT22;45649;53.014;6.600;2023-07-13T06:35:42;19.00;85.70
59771;DHT22;45649;53.014;6.600;2023-07-13T06:38:08;19.00;86.30
59771;DHT22;45649;53.014;6.600;2023-07-13T06:40:34;19.10;86.70
59771;DHT22;45649;53.014;6.600;2023-07-13T06:42:59;19.20;86.40
59771;DHT22;45649;53.014;6.600;2023-07-13T06:45:25;19.20;86.40
59771;DHT22;45649;53.014;6.600;2023-07-13T06:47:51;19.30;86.20
59771;DHT22;45649;53.014;6.600;2023-07-13T06:50:16;19.30;83.80
59771;DHT22;45649;53.014;6.600;2023-07-13T06:52:42;19.40;83.20
59771;DHT22;45649;53.014;6.600;2023-07-13T06:55:08;19.40;81.70
59771;DHT22;45649;53.014;6.600;2023-07-13T06:57:34;19.40;80.40
59771;DHT22;45649;53.014;6.600;2023-07-13T06:59:59;19.50;80.20
59771;DHT22;45649;53.014;6.600;2023-07-13T07:02:25;19.50;78.90
59771;DHT22;45649;53.014;6.600;2023-07-13T07:04:51;19.60;80.20
59771;DHT22;45649;53.014;6.600;2023-07-13T07:07:16;19.70;81.10
59771;DHT22;45649;53.014;6.600;2023-07-13T07:09:42;19.70;80.20
59771;DHT22;45649;53.014;6.600;2023-07-13T07:12:08;19.80;79.00
59771;DHT22;45649;53.014;6.600;2023-07-13T07:14:33;19.90;78.30
59771;DHT22;45649;53.014;6.600;2023-07-13T07:17:00;20.00;77.00
59771;DHT22;45649;53.014;6.600;2023-07-13T07:19:27;20.10;78.50
59771;DHT22;45649;53.014;6.600;2023-07-13T07:21:53;20.20;76.20
59771;DHT22;45649;53.014;6.600;2023-07-13T07:24:18;20.20;74.80
59771;DHT22;45649;53.014;6.600;2023-07-13T07:26:44;20.20;74.70
59771;DHT22;45649;53.014;6.600;2023-07-13T07:29:10;20.30;75.40
59771;DHT22;45649;53.014;6.600;2023-07-13T07:31:35;20.30;74.70
59771;DHT22;45649;53.014;6.600;2023-07-13T07:34:02;20.30;75.50
59771;DHT22;45649;53.014;6.600;2023-07-13T07:36:28;20.20;75.50
59771;DHT22;45649;53.014;6.600;2023-07-13T07:38:54;20.10;75.80
59771;DHT22;45649;53.014;6.600;2023-07-13T07:41:19;20.10;76.60
59771;DHT22;45649;53.014;6.600;2023-07-13T07:43:45;20.10;76.70
59771;DHT22;45649;53.014;6.600;2023-07-13T07:46:11;20.10;78.50
59771;DHT22;45649;53.014;6.600;2023-07-13T07:48:37;20.10;79.30
59771;DHT22;45649;53.014;6.600;2023-07-13T07:51:02;20.00;79.40
59771;DHT22;45649;53.014;6.600;2023-07-13T07:53:28;19.90;79.30
59771;DHT22;45649;53.014;6.600;2023-07-13T07:55:54;19.80;79.20
59771;DHT22;45649;53.014;6.600;2023-07-13T07:58:19;19.70;81.40
59771;DHT22;45649;53.014;6.600;2023-07-13T08:00:45;19.70;81.90
59771;DHT22;45649;53.014;6.600;2023-07-13T08:03:11;19.70;79.80
59771;DHT22;45649;53.014;6.600;2023-07-13T08:05:36;19.60;79.50
59771;DHT22;45649;53.014;6.600;2023-07-13T08:08:03;19.50;80.20
59771;DHT22;45649;53.014;6.600;2023-07-13T08:10:28;19.50;81.10
59771;DHT22;45649;53.014;6.600;2023-07-13T08:12:54;19.70;81.90
59771;DHT22;45649;53.014;6.600;2023-07-13T08:15:20;19.60;82.30
59771;DHT22;45649;53.014;6.600;2023-07-13T08:17:47;19.60;83.80
59771;DHT22;45649;53.014;6.600;2023-07-13T08:20:13;19.60;82.90
59771;DHT22;45649;53.014;6.600;2023-07-13T08:22:39;19.60;86.30
59771;DHT22;45649;53.014;6.600;2023-07-13T08:25:05;19.50;90.20
59771;DHT22;45649;53.014;6.600;2023-07-13T08:27:32;19.40;91.40
59771;DHT22;45649;53.014;6.600;2023-07-13T08:29:58;19.20;93.60
59771;DHT22;45649;53.014;6.600;2023-07-13T08:32:24;19.10;93.50
59771;DHT22;45649;53.014;6.600;2023-07-13T08:34:50;19.10;94.00
59771;DHT22;45649;53.014;6.600;2023-07-13T08:37:16;19.00;93.40
59771;DHT22;45649;53.014;6.600;2023-07-13T08:39:42;18.90;93.30
59771;DHT22;45649;53.014;6.600;2023-07-13T08:42:32;18.80;93.50
59771;DHT22;45649;53.014;6.600;2023-07-13T08:48:27;18.60;94.60
59771;DHT22;45649;53.014;6.600;2023-07-13T08:53:36;18.50;92.60
59771;DHT22;45649;53.014;6.600;2023-07-13T08:56:07;18.40;91.60
59771;DHT22;45649;53.014;6.600;2023-07-13T08:58:36;18.50;92.00
59771;DHT22;45649;53.014;6.600;2023-07-13T09:01:15;18.30;92.70
59771;DHT22;45649;53.014;6.600;2023-07-13T09:03:52;18.20;93.20
59771;DHT22;45649;53.014;6.600;2023-07-13T09:06:29;18.20;93.30
59771;DHT22;45649;53.014;6.600;2023-07-13T09:09:02;18.10;93.80
59771;DHT22;45649;53.014;6.600;2023-07-13T09:16:40;18.40;93.50
59771;DHT22;45649;53.014;6.600;2023-07-13T09:19:13;18.50;93.40
59771;DHT22;45649;53.014;6.600;2023-07-13T09:21:45;18.50;94.00
59771;DHT22;45649;53.014;6.600;2023-07-13T09:24:36;18.70;94.00
59771;DHT22;45649;53.014;6.600;2023-07-13T09:27:20;18.80;93.90
59771;DHT22;45649;53.014;6.600;2023-07-13T09:30:50;18.70;92.50
59771;DHT22;45649;53.014;6.600;2023-07-13T09:32:56;18.80;93.90
59771;DHT22;45649;53.014;6.600;2023-07-13T09:35:26;18.80;93.40
59771;DHT22;45649;53.014;6.600;2023-07-13T09:37:58;18.80;93.70
59771;DHT22;45649;53.014;6.600;2023-07-13T09:40:30;18.80;94.10
59771;DHT22;45649;53.014;6.600;2023-07-13T09:42:59;18.80;93.80
59771;DHT22;45649;53.014;6.600;2023-07-13T09:45:30;18.90;94.20
59771;DHT22;45649;53.014;6.600;2023-07-13T09:48:16;18.90;93.20
59771;DHT22;45649;53.014;6.600;2023-07-13T09:50:43;19.00;94.10
59771;DHT22;45649;53.014;6.600;2023-07-13T09:53:14;19.20;94.20
59771;DHT22;45649;53.014;6.600;2023-07-13T09:55:42;19.30;94.00
59771;DHT22;45649;53.014;6.600;2023-07-13T09:58:23;19.50;93.50
59771;DHT22;45649;53.014;6.600;2023-07-13T10:00:58;19.70;92.50
59771;DHT22;45649;53.014;6.600;2023-07-13T10:03:27;19.60;91.80
59771;DHT22;45649;53.014;6.600;2023-07-13T10:05:54;19.70;91.30
59771;DHT22;45649;53.014;6.600;2023-07-13T10:08:27;19.80;91.70
59771;DHT22;45649;53.014;6.600;2023-07-13T10:10:58;19.90;92.20
59771;DHT22;45649;53.014;6.600;2023-07-13T10:13:46;19.90;91.80
59771;DHT22;45649;53.014;6.600;2023-07-13T10:16:14;19.90;91.00
59771;DHT22;45649;53.014;6.600;2023-07-13T10:18:55;19.80;90.90
59771;DHT22;45649;53.014;6.600;2023-07-13T10:21:26;19.80;88.50
59771;DHT22;45649;53.014;6.600;2023-07-13T10:29:22;19.40;90.80
59771;DHT22;45649;53.014;6.600;2023-07-13T10:31:49;19.30;91.80
59771;DHT22;45649;53.014;6.600;2023-07-13T10:34:15;19.20;92.50
59771;DHT22;45649;53.014;6.600;2023-07-13T10:36:44;19.20;92.80
59771;DHT22;45649;53.014;6.600;2023-07-13T10:39:20;19.20;93.30
59771;DHT22;45649;53.014;6.600;2023-07-13T10:41:57;19.20;93.60
59771;DHT22;45649;53.014;6.600;2023-07-13T10:44:28;19.10;94.10
59771;DHT22;45649;53.014;6.600;2023-07-13T10:47:00;19.00;92.90
59771;DHT22;45649;53.014;6.600;2023-07-13T10:49:31;19.00;91.90
59771;DHT22;45649;53.014;6.600;2023-07-13T10:51:57;19.10;91.30
59771;DHT22;45649;53.014;6.600;2023-07-13T11:00:32;19.60;93.20
59771;DHT22;45649;53.014;6.600;2023-07-13T11:02:33;19.60;92.80
59771;DHT22;45649;53.014;6.600;2023-07-13T11:05:33;19.60;92.10
59771;DHT22;45649;53.014;6.600;2023-07-13T11:08:21;19.60;93.10
59771;DHT22;45649;53.014;6.600;2023-07-13T11:10:57;19.90;93.30
59771;DHT22;45649;53.014;6.600;2023-07-13T11:18:46;20.50;91.80
59771;DHT22;45649;53.014;6.600;2023-07-13T11:21:18;20.70;90.90
59771;DHT22;45649;53.014;6.600;2023-07-13T11:23:51;20.90;89.80
59771;DHT22;45649;53.014;6.600;2023-07-13T11:31:41;21.40;85.20
59771;DHT22;45649;53.014;6.600;2023-07-13T11:34:14;21.40;84.20
59771;DHT22;45649;53.014;6.600;2023-07-13T11:36:43;21.40;82.20
59771;DHT22;45649;53.014;6.600;2023-07-13T11:39:21;21.40;81.90
59771;DHT22;45649;53.014;6.600;2023-07-13T11:41:55;21.50;81.40
59771;DHT22;45649;53.014;6.600;2023-07-13T11:44:24;21.60;80.10
59771;DHT22;45649;53.014;6.600;2023-07-13T11:46:52;21.70;77.50
59771;DHT22;45649;53.014;6.600;2023-07-13T11:49:20;21.70;75.00
59771;DHT22;45649;53.014;6.600;2023-07-13T11:51:46;21.80;73.40
59771;DHT22;45649;53.014;6.600;2023-07-13T11:54:41;22.00;72.00
59771;DHT22;45649;53.014;6.600;2023-07-13T11:57:41;22.00;70.20
59771;DHT22;45649;53.014;6.600;2023-07-13T12:00:18;22.10;68.80
59771;DHT22;45649;53.014;6.600;2023-07-13T12:02:47;22.20;66.00
59771;DHT22;45649;53.014;6.600;2023-07-13T12:05:16;22.30;66.90
59771;DHT22;45649;53.014;6.600;2023-07-13T12:07:44;22.50;66.20
59771;DHT22;45649;53.014;6.600;2023-07-13T12:10:20;22.50;65.30
59771;DHT22;45649;53.014;6.600;2023-07-13T12:15:28;22.60;63.40
59771;DHT22;45649;53.014;6.600;2023-07-13T12:17:56;22.70;62.30
59771;DHT22;45649;53.014;6.600;2023-07-13T12:20:30;22.80;62.80
59771;DHT22;45649;53.014;6.600;2023-07-13T12:22:59;22.80;62.60
59771;DHT22;45649;53.014;6.600;2023-07-13T12:25:26;22.70;61.40
59771;DHT22;45649;53.014;6.600;2023-07-13T12:27:52;22.50;61.60
59771;DHT22;45649;53.014;6.600;2023-07-13T12:30:31;22.40;61.40
59771;DHT22;45649;53.014;6.600;2023-07-13T12:33:01;22.40;60.30
59771;DHT22;45649;53.014;6.600;2023-07-13T12:35:30;22.30;60.10
59771;DHT22;45649;53.014;6.600;2023-07-13T12:37:59;22.40;60.90
59771;DHT22;45649;53.014;6.600;2023-07-13T12:40:32;22.60;59.70
59771;DHT22;45649;53.014;6.600;2023-07-13T12:42:59;22.70;58.00
59771;DHT22;45649;53.014;6.600;2023-07-13T12:45:30;22.80;57.40
59771;DHT22;45649;53.014;6.600;2023-07-13T12:48:16;22.90;57.70
59771;DHT22;45649;53.014;6.600;2023-07-13T12:50:47;23.10;57.30
59771;DHT22;45649;53.014;6.600;2023-07-13T12:53:16;23.00;57.50
59771;DHT22;45649;53.014;6.600;2023-07-13T12:55:55;23.00;57.70
59771;DHT22;45649;53.014;6.600;2023-07-13T12:58:37;22.90;55.80
59771;DHT22;45649;53.014;6.600;2023-07-13T13:01:05;22.90;55.20
59771;DHT22;45649;53.014;6.600;2023-07-13T13:03:54;23.00;56.90
59771;DHT22;45649;53.014;6.600;2023-07-13T13:06:25;22.90;57.20
59771;DHT22;45649;53.014;6.600;2023-07-13T13:08:56;22.90;57.50
59771;DHT22;45649;53.014;6.600;2023-07-13T13:11:24;22.90;56.80
59771;DHT22;45649;53.014;6.600;2023-07-13T13:13:52;23.00;57.20
59771;DHT22;45649;53.014;6.600;2023-07-13T13:16:29;23.00;57.70
59771;DHT22;45649;53.014;6.600;2023-07-13T13:19:01;23.00;55.00
59771;DHT22;45649;53.014;6.600;2023-07-13T13:21:31;23.30;56.10
59771;DHT22;45649;53.014;6.600;2023-07-13T13:23:58;23.20;55.70
59771;DHT22;45649;53.014;6.600;2023-07-13T13:26:24;23.10;54.90
59771;DHT22;45649;53.014;6.600;2023-07-13T13:28:49;23.20;55.70
59771;DHT22;45649;53.014;6.600;2023-07-13T13:31:15;23.10;56.40
59771;DHT22;45649;53.014;6.600;2023-07-13T13:33:43;23.10;57.60
59771;DHT22;45649;53.014;6.600;2023-07-13T13:36:19;23.00;57.30
59771;DHT22;45649;53.014;6.600;2023-07-13T13:38:49;22.90;56.50
59771;DHT22;45649;53.014;6.600;2023-07-13T13:41:15;22.80;57.40
59771;DHT22;45649;53.014;6.600;2023-07-13T13:43:42;22.70;56.70
59771;DHT22;45649;53.014;6.600;2023-07-13T13:46:20;22.60;56.50
59771;DHT22;45649;53.014;6.600;2023-07-13T13:48:48;22.60;56.70
59771;DHT22;45649;53.014;6.600;2023-07-13T13:51:17;22.60;57.00
59771;DHT22;45649;53.014;6.600;2023-07-13T13:53:44;22.50;56.80
59771;DHT22;45649;53.014;6.600;2023-07-13T13:56:12;22.60;56.90
59771;DHT22;45649;53.014;6.600;2023-07-13T13:58:37;22.50;56.50
59771;DHT22;45649;53.014;6.600;2023-07-13T14:01:03;22.60;56.10
59771;DHT22;45649;53.014;6.600;2023-07-13T14:03:34;22.50;56.60
59771;DHT22;45649;53.014;6.600;2023-07-13T14:05:59;22.50;56.80
59771;DHT22;45649;53.014;6.600;2023-07-13T14:08:26;22.60;57.10
59771;DHT22;45649;53.014;6.600;2023-07-13T14:10:55;22.70;58.60
59771;DHT22;45649;53.014;6.600;2023-07-13T14:13:32;22.70;57.20
59771;DHT22;45649;53.014;6.600;2023-07-13T14:15:59;22.60;56.10
59771;DHT22;45649;53.014;6.600;2023-07-13T14:18:25;22.50;56.50
59771;DHT22;45649;53.014;6.600;2023-07-13T14:20:51;22.60;57.10
59771;DHT22;45649;53.014;6.600;2023-07-13T14:23:18;22.70;56.00
59771;DHT22;45649;53.014;6.600;2023-07-13T14:25:45;22.60;55.50
59771;DHT22;45649;53.014;6.600;2023-07-13T14:30:48;22.50;55.80
59771;DHT22;45649;53.014;6.600;2023-07-13T14:33:14;22.60;57.60
59771;DHT22;45649;53.014;6.600;2023-07-13T14:35:40;22.70;55.50
59771;DHT22;45649;53.014;6.600;2023-07-13T14:38:10;22.80;55.80
59771;DHT22;45649;53.014;6.600;2023-07-13T14:40:37;22.80;54.10
59771;DHT22;45649;53.014;6.600;2023-07-13T14:43:03;22.90;54.90
59771;DHT22;45649;53.014;6.600;2023-07-13T14:45:30;23.00;56.10
59771;DHT22;45649;53.014;6.600;2023-07-13T14:47:56;23.10;57.10
59771;DHT22;45649;53.014;6.600;2023-07-13T14:50:30;23.10;55.10
59771;DHT22;45649;53.014;6.600;2023-07-13T14:52:57;23.20;54.00
59771;DHT22;45649;53.014;6.600;2023-07-13T14:55:22;23.30;53.90
59771;DHT22;45649;53.014;6.600;2023-07-13T14:57:51;23.30;53.80
59771;DHT22;45649;53.014;6.600;2023-07-13T15:00:19;23.30;56.00
59771;DHT22;45649;53.014;6.600;2023-07-13T15:02:51;23.30;55.40
59771;DHT22;45649;53.014;6.600;2023-07-13T15:05:21;23.20;53.30
59771;DHT22;45649;53.014;6.600;2023-07-13T15:07:48;23.10;54.80
59771;DHT22;45649;53.014;6.600;2023-07-13T15:10:23;23.10;54.20
59771;DHT22;45649;53.014;6.600;2023-07-13T15:13:04;23.10;53.40
59771;DHT22;45649;53.014;6.600;2023-07-13T15:15:39;23.00;53.00
59771;DHT22;45649;53.014;6.600;2023-07-13T15:18:10;22.70;53.70
59771;DHT22;45649;53.014;6.600;2023-07-13T15:20:36;22.70;55.50
59771;DHT22;45649;53.014;6.600;2023-07-13T15:23:02;22.70;54.80
59771;DHT22;45649;53.014;6.600;2023-07-13T15:25:30;22.70;53.60
59771;DHT22;45649;53.014;6.600;2023-07-13T15:27:57;22.70;53.40
59771;DHT22;45649;53.014;6.600;2023-07-13T15:30:29;22.60;52.50
59771;DHT22;45649;53.014;6.600;2023-07-13T15:33:01;22.70;53.40
59771;DHT22;45649;53.014;6.600;2023-07-13T15:35:33;22.80;53.70
59771;DHT22;45649;53.014;6.600;2023-07-13T15:37:59;22.80;55.20
59771;DHT22;45649;53.014;6.600;2023-07-13T15:40:25;22.80;55.30
59771;DHT22;45649;53.014;6.600;2023-07-13T15:42:52;22.70;53.90
59771;DHT22;45649;53.014;6.600;2023-07-13T15:45:22;22.80;55.10
59771;DHT22;45649;53.014;6.600;2023-07-13T15:47:51;22.80;55.50
59771;DHT22;45649;53.014;6.600;2023-07-13T15:50:19;23.00;53.00
59771;DHT22;45649;53.014;6.600;2023-07-13T15:52:49;22.90;55.00
59771;DHT22;45649;53.014;6.600;2023-07-13T15:55:15;22.80;54.80
59771;DHT22;45649;53.014;6.600;2023-07-13T15:57:52;22.90;55.20
59771;DHT22;45649;53.014;6.600;2023-07-13T16:00:25;22.80;53.10
59771;DHT22;45649;53.014;6.600;2023-07-13T16:02:51;22.70;54.00
59771;DHT22;45649;53.014;6.600;2023-07-13T16:05:19;22.70;55.10
59771;DHT22;45649;53.014;6.600;2023-07-13T16:07:46;22.70;55.20
59771;DHT22;45649;53.014;6.600;2023-07-13T16:10:19;22.60;54.10
59771;DHT22;45649;53.014;6.600;2023-07-13T16:12:46;22.50;54.00
59771;DHT22;45649;53.014;6.600;2023-07-13T16:15:14;22.40;55.70
59771;DHT22;45649;53.014;6.600;2023-07-13T16:17:42;22.40;56.20
59771;DHT22;45649;53.014;6.600;2023-07-13T16:20:08;22.50;56.30